sensor_id;sensor_type;location;lat;lon;timestamp;pressure;altitude;pressure_sealevel;temperature;humidity
6393;BME280;3229;42.674;23.282;2023-03-05T00:01:20;94160.53;;;11.93;62.72
6393;BME280;3229;42.674;23.282;2023-03-05T00:03:50;94157.97;;;11.93;62.74
6393;BME280;3229;42.674;23.282;2023-03-05T00:06:17;94158.78;;;11.94;62.57
6393;BME280;3229;42.674;23.282;2023-03-05T00:08:44;94150.28;;;11.93;62.66
6393;BME280;3229;42.674;23.282;2023-03-05T00:11:11;94145.16;;;11.93;62.64
6393;BME280;3229;42.674;23.282;2023-03-05T00:13:38;94144.38;;;11.93;62.74
6393;BME280;3229;42.674;23.282;2023-03-05T00:16:07;94140.84;;;11.94;62.72
6393;BME280;3229;42.674;23.282;2023-03-05T00:18:34;94145.16;;;11.93;62.67
6393;BME280;3229;42.674;23.282;2023-03-05T00:21:03;94142.59;;;11.93;62.55
6393;BME280;3229;42.674;23.282;2023-03-05T00:23:30;94136.69;;;11.93;62.70
6393;BME280;3229;42.674;23.282;2023-03-05T00:26:00;94135.72;;;11.94;62.64
6393;BME280;3229;42.674;23.282;2023-03-05T00:28:28;94130.75;;;11.92;62.50
6393;BME280;3229;42.674;23.282;2023-03-05T00:30:58;94138.28;;;11.94;62.66
6393;BME280;3229;42.674;23.282;2023-03-05T00:33:25;94136.69;;;11.93;62.60
6393;BME280;3229;42.674;23.282;2023-03-05T00:35:52;94127.22;;;11.93;62.62
6393;BME280;3229;42.674;23.282;2023-03-05T00:38:20;94130.75;;;11.92;62.50
6393;BME280;3229;42.674;23.282;2023-03-05T00:40:49;94126.44;;;11.93;62.68
6393;BME280;3229;42.674;23.282;2023-03-05T00:43:16;94124.84;;;11.92;62.48
6393;BME280;3229;42.674;23.282;2023-03-05T00:45:43;94118.09;;;11.91;62.69
6393;BME280;3229;42.674;23.282;2023-03-05T00:48:10;94108.97;;;11.88;62.57
6393;BME280;3229;42.674;23.282;2023-03-05T00:50:37;94112.97;;;11.91;62.66
6393;BME280;3229;42.674;23.282;2023-03-05T00:53:03;94114.91;;;11.89;62.49
6393;BME280;3229;42.674;23.282;2023-03-05T00:55:32;94110.56;;;11.89;62.43
6393;BME280;3229;42.674;23.282;2023-03-05T00:58:00;94107.22;;;11.89;62.70
6393;BME280;3229;42.674;23.282;2023-03-05T01:00:27;94103.84;;;11.88;62.60
6393;BME280;3229;42.674;23.282;2023-03-05T01:02:54;94105.75;;;11.86;62.45
6393;BME280;3229;42.674;23.282;2023-03-05T01:05:21;94100.63;;;11.86;62.35
6393;BME280;3229;42.674;23.282;2023-03-05T01:07:51;94093.91;;;11.85;62.25
6393;BME280;3229;42.674;23.282;2023-03-05T01:10:18;94105.91;;;11.85;62.24
6393;BME280;3229;42.674;23.282;2023-03-05T01:12:46;94093.28;;;11.83;62.24
6393;BME280;3229;42.674;23.282;2023-03-05T01:15:13;94090.72;;;11.83;62.24
6393;BME280;3229;42.674;23.282;2023-03-05T01:17:40;94080.28;;;11.76;62.34
6393;BME280;3229;42.674;23.282;2023-03-05T01:20:08;94096.13;;;11.80;62.22
6393;BME280;3229;42.674;23.282;2023-03-05T01:22:35;94093.56;;;11.80;62.22
6393;BME280;3229;42.674;23.282;2023-03-05T01:25:02;94092.09;;;11.77;62.01
6393;BME280;3229;42.674;23.282;2023-03-05T01:27:29;94089.72;;;11.76;61.86
6393;BME280;3229;42.674;23.282;2023-03-05T01:29:57;94085.22;;;11.78;61.89
6393;BME280;3229;42.674;23.282;2023-03-05T01:32:24;94078.50;;;11.77;62.03
6393;BME280;3229;42.674;23.282;2023-03-05T01:34:51;94078.50;;;11.77;61.98
6393;BME280;3229;42.674;23.282;2023-03-05T01:37:17;94087.16;;;11.76;61.95
6393;BME280;3229;42.674;23.282;2023-03-05T01:39:44;94078.69;;;11.75;61.87
6393;BME280;3229;42.674;23.282;2023-03-05T01:42:11;94077.09;;;11.74;61.97
6393;BME280;3229;42.674;23.282;2023-03-05T01:44:38;94078.81;;;11.74;61.82
6393;BME280;3229;42.674;23.282;2023-03-05T01:47:06;94074.66;;;11.73;61.71
6393;BME280;3229;42.674;23.282;2023-03-05T01:49:35;94076.44;;;11.72;61.68
6393;BME280;3229;42.674;23.282;2023-03-05T01:52:05;94072.28;;;11.71;61.77
6393;BME280;3229;42.674;23.282;2023-03-05T01:54:36;94084.28;;;11.71;61.76
6393;BME280;3229;42.674;23.282;2023-03-05T01:57:08;94074.66;;;11.65;61.81
6393;BME280;3229;42.674;23.282;2023-03-05T01:59:38;94083.63;;;11.69;61.71
6393;BME280;3229;42.674;23.282;2023-03-05T02:02:08;94085.38;;;11.68;61.50
6393;BME280;3229;42.674;23.282;2023-03-05T02:04:39;94084.59;;;11.68;61.63
6393;BME280;3229;42.674;23.282;2023-03-05T02:07:08;94085.38;;;11.68;61.61
6393;BME280;3229;42.674;23.282;2023-03-05T02:09:37;94084.59;;;11.68;61.64
6393;BME280;3229;42.674;23.282;2023-03-05T02:12:04;94066.50;;;11.53;61.52
6393;BME280;3229;42.674;23.282;2023-03-05T02:14:31;94079.63;;;11.66;61.57
6393;BME280;3229;42.674;23.282;2023-03-05T02:16:59;94081.22;;;11.67;61.41
6393;BME280;3229;42.674;23.282;2023-03-05T02:19:27;94083.00;;;11.67;61.46
6393;BME280;3229;42.674;23.282;2023-03-05T02:21:55;94083.97;;;11.66;61.56
6393;BME280;3229;42.674;23.282;2023-03-05T02:24:34;94089.09;;;11.66;61.48
6393;BME280;3229;42.674;23.282;2023-03-05T02:27:02;94087.47;;;11.65;61.42
6393;BME280;3229;42.674;23.282;2023-03-05T02:29:30;94081.84;;;11.61;61.12
6393;BME280;3229;42.674;23.282;2023-03-05T02:31:59;94084.75;;;11.58;61.46
6393;BME280;3229;42.674;23.282;2023-03-05T02:34:26;94085.53;;;11.59;61.30
6393;BME280;3229;42.674;23.282;2023-03-05T02:36:52;94083.00;;;11.59;61.46
6393;BME280;3229;42.674;23.282;2023-03-05T02:39:21;94090.34;;;11.62;61.37
6393;BME280;3229;42.674;23.282;2023-03-05T02:41:48;94092.91;;;11.62;61.21
6393;BME280;3229;42.674;23.282;2023-03-05T02:44:15;94087.13;;;11.60;61.43
6393;BME280;3229;42.674;23.282;2023-03-05T02:46:41;94088.09;;;11.59;61.29
6393;BME280;3229;42.674;23.282;2023-03-05T02:49:08;94093.22;;;11.59;61.46
6393;BME280;3229;42.674;23.282;2023-03-05T02:51:35;94089.06;;;11.58;61.48
6393;BME280;3229;42.674;23.282;2023-03-05T02:54:02;94092.56;;;11.56;61.32
6393;BME280;3229;42.674;23.282;2023-03-05T02:56:31;94093.53;;;11.55;61.48
6393;BME280;3229;42.674;23.282;2023-03-05T02:58:57;94094.50;;;11.54;61.35
6393;BME280;3229;42.674;23.282;2023-03-05T03:01:24;94098.81;;;11.54;61.36
6393;BME280;3229;42.674;23.282;2023-03-05T03:03:52;94099.78;;;11.53;61.55
6393;BME280;3229;42.674;23.282;2023-03-05T03:06:19;94090.66;;;11.50;61.47
6393;BME280;3229;42.674;23.282;2023-03-05T03:08:46;94101.69;;;11.51;61.42
6393;BME280;3229;42.674;23.282;2023-03-05T03:11:13;94095.94;;;11.49;61.49
6393;BME280;3229;42.674;23.282;2023-03-05T03:13:41;94098.50;;;11.49;61.47
6393;BME280;3229;42.674;23.282;2023-03-05T03:16:11;94100.25;;;11.48;61.41
6393;BME280;3229;42.674;23.282;2023-03-05T03:18:38;94103.75;;;11.47;61.37
6393;BME280;3229;42.674;23.282;2023-03-05T03:21:05;94098.00;;;11.45;61.57
6393;BME280;3229;42.674;23.282;2023-03-05T03:23:32;94101.38;;;11.46;61.49
6393;BME280;3229;42.674;23.282;2023-03-05T03:25:59;94101.69;;;11.43;61.52
6393;BME280;3229;42.674;23.282;2023-03-05T03:28:26;94100.72;;;11.44;61.43
6393;BME280;3229;42.674;23.282;2023-03-05T03:30:54;94104.09;;;11.44;61.56
6393;BME280;3229;42.674;23.282;2023-03-05T03:33:21;94103.28;;;11.44;61.38
6393;BME280;3229;42.674;23.282;2023-03-05T03:35:48;94105.84;;;11.44;61.23
6393;BME280;3229;42.674;23.282;2023-03-05T03:38:15;94100.88;;;11.42;61.29
6393;BME280;3229;42.674;23.282;2023-03-05T03:40:41;94100.38;;;11.39;61.48
6393;BME280;3229;42.674;23.282;2023-03-05T03:43:08;94106.97;;;11.41;61.29
6393;BME280;3229;42.674;23.282;2023-03-05T03:45:39;94108.72;;;11.41;61.52
6393;BME280;3229;42.674;23.282;2023-03-05T03:48:07;94107.09;;;11.40;61.64
6393;BME280;3229;42.674;23.282;2023-03-05T03:50:37;94108.22;;;11.37;61.38
6393;BME280;3229;42.674;23.282;2023-03-05T03:53:04;94110.78;;;11.37;61.34
6393;BME280;3229;42.674;23.282;2023-03-05T03:55:31;94108.22;;;11.37;61.37
6393;BME280;3229;42.674;23.282;2023-03-05T03:57:58;94112.56;;;11.37;61.47
6393;BME280;3229;42.674;23.282;2023-03-05T04:00:24;94114.47;;;11.35;61.36
6393;BME280;3229;42.674;23.282;2023-03-05T04:02:51;94115.41;;;11.34;61.51
6393;BME280;3229;42.674;23.282;2023-03-05T04:05:19;94104.56;;;11.32;61.49
6393;BME280;3229;42.674;23.282;2023-03-05T04:07:46;94104.69;;;11.30;61.43
6393;BME280;3229;42.674;23.282;2023-03-05T04:10:13;94113.34;;;11.29;61.61
6393;BME280;3229;42.674;23.282;2023-03-05T04:12:40;94110.44;;;11.24;61.57
6393;BME280;3229;42.674;23.282;2023-03-05T04:15:08;94117.66;;;11.28;61.31
6393;BME280;3229;42.674;23.282;2023-03-05T04:17:35;94114.28;;;11.28;61.40
6393;BME280;3229;42.674;23.282;2023-03-05T04:20:03;94120.22;;;11.28;61.44
6393;BME280;3229;42.674;23.282;2023-03-05T04:22:33;94119.09;;;11.23;61.51
6393;BME280;3229;42.674;23.282;2023-03-05T04:25:00;94118.63;;;11.27;61.54
6393;BME280;3229;42.674;23.282;2023-03-05T04:27:28;94117.00;;;11.26;61.56
6393;BME280;3229;42.674;23.282;2023-03-05T04:29:54;94114.44;;;11.26;61.36
6393;BME280;3229;42.674;23.282;2023-03-05T04:32:21;94125.63;;;11.25;61.49
6393;BME280;3229;42.674;23.282;2023-03-05T04:34:53;94111.25;;;11.24;61.40
6393;BME280;3229;42.674;23.282;2023-03-05T04:37:19;94111.53;;;11.21;61.51
6393;BME280;3229;42.674;23.282;2023-03-05T04:39:48;94111.53;;;11.21;61.46
6393;BME280;3229;42.674;23.282;2023-03-05T04:42:14;94103.06;;;11.21;61.26
6393;BME280;3229;42.674;23.282;2023-03-05T04:44:42;94109.78;;;11.22;61.40
6393;BME280;3229;42.674;23.282;2023-03-05T04:47:09;94109.94;;;11.20;61.22
6393;BME280;3229;42.674;23.282;2023-03-05T04:49:36;94101.78;;;11.17;61.13
6393;BME280;3229;42.674;23.282;2023-03-05T04:52:03;94104.03;;;11.20;61.58
6393;BME280;3229;42.674;23.282;2023-03-05T04:54:30;94110.25;;;11.17;61.40
6393;BME280;3229;42.674;23.282;2023-03-05T04:56:58;94102.44;;;11.19;61.31
6393;BME280;3229;42.674;23.282;2023-03-05T04:59:25;94099.22;;;11.17;61.39
6393;BME280;3229;42.674;23.282;2023-03-05T05:01:52;94102.56;;;11.17;61.29
6393;BME280;3229;42.674;23.282;2023-03-05T05:04:19;94102.56;;;11.17;61.27
6393;BME280;3229;42.674;23.282;2023-03-05T05:06:46;94108.66;;;11.16;61.21
6393;BME280;3229;42.674;23.282;2023-03-05T05:09:13;94097.28;;;11.11;61.55
6393;BME280;3229;42.674;23.282;2023-03-05T05:11:40;94101.16;;;11.15;61.19
6393;BME280;3229;42.674;23.282;2023-03-05T05:14:08;94107.84;;;11.16;61.19
6393;BME280;3229;42.674;23.282;2023-03-05T05:16:35;94107.84;;;11.16;61.29
6393;BME280;3229;42.674;23.282;2023-03-05T05:19:02;94112.97;;;11.16;61.24
6393;BME280;3229;42.674;23.282;2023-03-05T05:21:28;94112.97;;;11.16;61.19
6393;BME280;3229;42.674;23.282;2023-03-05T05:23:55;94108.03;;;11.14;61.18
6393;BME280;3229;42.674;23.282;2023-03-05T05:26:22;94111.22;;;11.16;61.23
6393;BME280;3229;42.674;23.282;2023-03-05T05:28:49;94115.88;;;11.21;61.02
6393;BME280;3229;42.674;23.282;2023-03-05T05:31:17;94109.00;;;11.21;61.06
6393;BME280;3229;42.674;23.282;2023-03-05T05:33:45;94103.56;;;11.24;60.67
6393;BME280;3229;42.674;23.282;2023-03-05T05:36:14;94113.16;;;11.30;60.77
6393;BME280;3229;42.674;23.282;2023-03-05T05:38:41;94111.91;;;11.35;60.58
6393;BME280;3229;42.674;23.282;2023-03-05T05:41:09;94117.34;;;11.40;60.45
6393;BME280;3229;42.674;23.282;2023-03-05T05:43:37;94114.16;;;11.46;60.39
6393;BME280;3229;42.674;23.282;2023-03-05T05:46:06;94118.97;;;11.57;60.25
6393;BME280;3229;42.674;23.282;2023-03-05T05:48:35;94127.34;;;11.75;59.82
6393;BME280;3229;42.674;23.282;2023-03-05T05:51:04;94116.19;;;11.93;59.46
6393;BME280;3229;42.674;23.282;2023-03-05T05:53:31;94120.34;;;12.10;59.21
6393;BME280;3229;42.674;23.282;2023-03-05T05:55:58;94120.28;;;12.35;58.94
6393;BME280;3229;42.674;23.282;2023-03-05T05:58:25;94120.75;;;12.54;58.76
6393;BME280;3229;42.674;23.282;2023-03-05T06:00:52;94126.81;;;12.70;58.59
6393;BME280;3229;42.674;23.282;2023-03-05T06:03:19;94126.47;;;12.81;58.48
6393;BME280;3229;42.674;23.282;2023-03-05T06:05:47;94131.56;;;12.89;58.25
6393;BME280;3229;42.674;23.282;2023-03-05T06:08:16;94130.75;;;12.97;58.08
6393;BME280;3229;42.674;23.282;2023-03-05T06:10:43;94139.41;;;13.04;57.92
6393;BME280;3229;42.674;23.282;2023-03-05T06:13:11;94133.75;;;13.09;57.63
6393;BME280;3229;42.674;23.282;2023-03-05T06:15:38;94139.81;;;13.16;57.76
6393;BME280;3229;42.674;23.282;2023-03-05T06:18:05;94138.50;;;13.20;57.52
6393;BME280;3229;42.674;23.282;2023-03-05T06:20:32;94140.28;;;13.27;57.15
6393;BME280;3229;42.674;23.282;2023-03-05T06:23:00;94134.00;;;13.30;57.00
6393;BME280;3229;42.674;23.282;2023-03-05T06:25:27;94139.59;;;13.34;56.92
6393;BME280;3229;42.674;23.282;2023-03-05T06:27:53;94143.59;;;13.36;56.78
6393;BME280;3229;42.674;23.282;2023-03-05T06:30:20;94148.41;;;13.39;56.64
6393;BME280;3229;42.674;23.282;2023-03-05T06:32:47;94149.81;;;13.42;56.50
6393;BME280;3229;42.674;23.282;2023-03-05T06:35:14;94149.81;;;13.42;56.33
6393;BME280;3229;42.674;23.282;2023-03-05T06:37:41;94152.88;;;13.45;56.12
6393;BME280;3229;42.674;23.282;2023-03-05T06:40:13;94150.94;;;13.47;56.17
6393;BME280;3229;42.674;23.282;2023-03-05T06:42:41;94149.28;;;13.54;56.05
6393;BME280;3229;42.674;23.282;2023-03-05T06:45:09;94140.59;;;13.55;55.84
6393;BME280;3229;42.674;23.282;2023-03-05T06:47:36;94150.31;;;13.68;55.85
6393;BME280;3229;42.674;23.282;2023-03-05T06:50:03;94156.06;;;13.78;55.59
6393;BME280;3229;42.674;23.282;2023-03-05T06:52:30;94156.00;;;13.87;55.55
6393;BME280;3229;42.674;23.282;2023-03-05T06:54:57;94158.00;;;13.99;55.26
6393;BME280;3229;42.674;23.282;2023-03-05T06:57:25;94154.03;;;14.12;55.17
6393;BME280;3229;42.674;23.282;2023-03-05T06:59:52;94164.56;;;14.25;55.07
6393;BME280;3229;42.674;23.282;2023-03-05T07:02:18;94160.06;;;14.42;54.87
6393;BME280;3229;42.674;23.282;2023-03-05T07:04:45;94151.91;;;14.76;78.74
6393;BME280;3229;42.674;23.282;2023-03-05T07:07:12;94162.16;;;15.50;82.11
6393;BME280;3229;42.674;23.282;2023-03-05T07:09:39;94158.88;;;16.14;78.14
6393;BME280;3229;42.674;23.282;2023-03-05T07:12:08;94164.72;;;16.72;74.79
6393;BME280;3229;42.674;23.282;2023-03-05T07:14:37;94155.91;;;17.22;71.80
6393;BME280;3229;42.674;23.282;2023-03-05T07:17:05;94151.13;;;17.67;69.51
6393;BME280;3229;42.674;23.282;2023-03-05T07:19:33;94156.22;;;18.09;67.35
6393;BME280;3229;42.674;23.282;2023-03-05T07:21:59;94159.63;;;18.42;65.63
6393;BME280;3229;42.674;23.282;2023-03-05T07:24:26;94155.66;;;18.73;64.17
6393;BME280;3229;42.674;23.282;2023-03-05T07:26:54;94152.63;;;19.02;62.73
6393;BME280;3229;42.674;23.282;2023-03-05T07:29:21;94159.72;;;19.34;61.43
6393;BME280;3229;42.674;23.282;2023-03-05T07:31:50;94160.81;;;19.64;60.25
6393;BME280;3229;42.674;23.282;2023-03-05T07:34:17;94156.72;;;19.95;59.06
6393;BME280;3229;42.674;23.282;2023-03-05T07:36:44;94150.28;;;20.29;57.31
6393;BME280;3229;42.674;23.282;2023-03-05T07:39:11;94150.06;;;20.62;55.76
6393;BME280;3229;42.674;23.282;2023-03-05T07:41:38;94140.03;;;20.91;54.92
6393;BME280;3229;42.674;23.282;2023-03-05T07:44:05;94148.13;;;21.19;54.63
6393;BME280;3229;42.674;23.282;2023-03-05T07:46:32;94155.03;;;21.50;53.73
6393;BME280;3229;42.674;23.282;2023-03-05T07:49:01;94149.03;;;21.80;52.76
6393;BME280;3229;42.674;23.282;2023-03-05T07:51:28;94147.69;;;22.08;51.87
6393;BME280;3229;42.674;23.282;2023-03-05T07:53:56;94153.56;;;22.33;50.85
6393;BME280;3229;42.674;23.282;2023-03-05T07:56:25;94147.47;;;22.51;49.98
6393;BME280;3229;42.674;23.282;2023-03-05T07:58:56;94152.69;;;22.74;49.73
6393;BME280;3229;42.674;23.282;2023-03-05T08:01:23;94158.97;;;23.09;48.15
6393;BME280;3229;42.674;23.282;2023-03-05T08:03:50;94157.47;;;23.24;47.80
6393;BME280;3229;42.674;23.282;2023-03-05T08:06:18;94157.03;;;23.27;47.08
6393;BME280;3229;42.674;23.282;2023-03-05T08:08:45;94157.47;;;23.24;47.31
6393;BME280;3229;42.674;23.282;2023-03-05T08:11:13;94159.19;;;23.19;47.03
6393;BME280;3229;42.674;23.282;2023-03-05T08:13:41;94157.94;;;23.10;46.83
6393;BME280;3229;42.674;23.282;2023-03-05T08:16:10;94152.06;;;23.02;47.03
6393;BME280;3229;42.674;23.282;2023-03-05T08:18:38;94156.81;;;22.94;47.28
6393;BME280;3229;42.674;23.282;2023-03-05T08:21:05;94149.53;;;22.84;47.35
6393;BME280;3229;42.674;23.282;2023-03-05T08:23:33;94155.28;;;22.74;47.67
6393;BME280;3229;42.674;23.282;2023-03-05T08:26:00;94149.50;;;22.61;47.58
6393;BME280;3229;42.674;23.282;2023-03-05T08:28:27;94156.50;;;22.48;47.91
6393;BME280;3229;42.674;23.282;2023-03-05T08:30:54;94151.75;;;22.34;47.86
6393;BME280;3229;42.674;23.282;2023-03-05T08:33:20;94154.91;;;22.24;47.91
6393;BME280;3229;42.674;23.282;2023-03-05T08:35:47;94152.59;;;22.16;48.32
6393;BME280;3229;42.674;23.282;2023-03-05T08:38:14;94149.25;;;22.09;48.24
6393;BME280;3229;42.674;23.282;2023-03-05T08:40:42;94148.69;;;22.07;48.21
6393;BME280;3229;42.674;23.282;2023-03-05T08:43:09;94142.91;;;22.04;48.36
6393;BME280;3229;42.674;23.282;2023-03-05T08:45:37;94132.13;;;22.01;48.17
6393;BME280;3229;42.674;23.282;2023-03-05T08:48:05;94137.09;;;21.91;47.62
6393;BME280;3229;42.674;23.282;2023-03-05T08:50:34;94141.81;;;21.82;47.52
6393;BME280;3229;42.674;23.282;2023-03-05T08:53:01;94141.56;;;21.72;47.31
6393;BME280;3229;42.674;23.282;2023-03-05T08:55:28;94142.28;;;21.61;46.98
6393;BME280;3229;42.674;23.282;2023-03-05T08:57:56;94138.97;;;21.53;46.57
6393;BME280;3229;42.674;23.282;2023-03-05T09:00:23;94130.47;;;21.46;46.58
6393;BME280;3229;42.674;23.282;2023-03-05T09:02:50;94128.06;;;21.45;46.47
6393;BME280;3229;42.674;23.282;2023-03-05T09:05:16;94120.84;;;21.47;46.54
6393;BME280;3229;42.674;23.282;2023-03-05T09:07:44;94113.59;;;21.49;46.24
6393;BME280;3229;42.674;23.282;2023-03-05T09:10:11;94117.94;;;21.55;46.11
6393;BME280;3229;42.674;23.282;2023-03-05T09:12:39;94118.28;;;21.59;45.79
6393;BME280;3229;42.674;23.282;2023-03-05T09:15:09;94109.47;;;21.60;45.77
6393;BME280;3229;42.674;23.282;2023-03-05T09:17:37;94114.38;;;21.68;45.99
6393;BME280;3229;42.674;23.282;2023-03-05T09:20:09;94119.47;;;21.74;45.99
6393;BME280;3229;42.674;23.282;2023-03-05T09:22:37;94097.88;;;21.74;45.65
6393;BME280;3229;42.674;23.282;2023-03-05T09:25:04;94105.25;;;21.77;45.49
6393;BME280;3229;42.674;23.282;2023-03-05T09:27:32;94100.47;;;21.74;45.30
6393;BME280;3229;42.674;23.282;2023-03-05T09:29:59;94100.47;;;21.74;44.81
6393;BME280;3229;42.674;23.282;2023-03-05T09:32:27;94100.72;;;21.72;44.80
6393;BME280;3229;42.674;23.282;2023-03-05T09:34:54;94099.31;;;21.70;44.69
6393;BME280;3229;42.674;23.282;2023-03-05T09:37:21;94094.78;;;21.65;44.38
6393;BME280;3229;42.674;23.282;2023-03-05T09:39:48;94095.88;;;21.58;44.48
6393;BME280;3229;42.674;23.282;2023-03-05T09:42:28;94088.16;;;21.51;44.24
6393;BME280;3229;42.674;23.282;2023-03-05T09:45:04;94091.50;;;21.40;44.25
6393;BME280;3229;42.674;23.282;2023-03-05T09:47:45;94079.59;;;21.32;44.02
6393;BME280;3229;42.674;23.282;2023-03-05T09:50:29;94086.66;;;21.25;43.83
6393;BME280;3229;42.674;23.282;2023-03-05T09:53:03;94081.66;;;21.23;43.81
6393;BME280;3229;42.674;23.282;2023-03-05T09:55:34;94070.88;;;21.20;43.92
6393;BME280;3229;42.674;23.282;2023-03-05T09:58:09;94077.59;;;21.27;43.53
6393;BME280;3229;42.674;23.282;2023-03-05T10:00:39;94072.63;;;21.26;43.06
6393;BME280;3229;42.674;23.282;2023-03-05T10:03:14;94071.84;;;21.25;43.18
6393;BME280;3229;42.674;23.282;2023-03-05T10:06:04;94070.16;;;21.31;42.90
6393;BME280;3229;42.674;23.282;2023-03-05T10:08:46;94071.34;;;21.35;42.73
6393;BME280;3229;42.674;23.282;2023-03-05T10:11:29;94067.31;;;21.39;42.64
6393;BME280;3229;42.674;23.282;2023-03-05T10:13:59;94066.72;;;21.37;42.42
6393;BME280;3229;42.674;23.282;2023-03-05T10:19:47;94066.66;;;21.25;42.30
6393;BME280;3229;42.674;23.282;2023-03-05T10:22:21;94050.53;;;21.17;42.14
6393;BME280;3229;42.674;23.282;2023-03-05T10:24:58;94047.59;;;21.13;42.33
6393;BME280;3229;42.674;23.282;2023-03-05T10:27:41;94049.59;;;21.11;42.33
6393;BME280;3229;42.674;23.282;2023-03-05T10:30:22;94033.28;;;21.04;42.00
6393;BME280;3229;42.674;23.282;2023-03-05T10:32:54;94033.66;;;21.08;42.09
6393;BME280;3229;42.674;23.282;2023-03-05T10:38:32;94023.69;;;21.04;42.11
6393;BME280;3229;42.674;23.282;2023-03-05T10:41:07;94016.78;;;20.98;41.76
6393;BME280;3229;42.674;23.282;2023-03-05T10:43:42;94012.00;;;20.95;41.99
6393;BME280;3229;42.674;23.282;2023-03-05T10:46:15;94012.84;;;20.89;42.08
6393;BME280;3229;42.674;23.282;2023-03-05T10:48:47;94000.47;;;20.73;42.05
6393;BME280;3229;42.674;23.282;2023-03-05T10:51:21;94011.84;;;20.72;41.68
6393;BME280;3229;42.674;23.282;2023-03-05T10:53:54;94007.75;;;20.64;41.98
6393;BME280;3229;42.674;23.282;2023-03-05T10:56:23;94007.59;;;20.59;41.81
6393;BME280;3229;42.674;23.282;2023-03-05T10:58:50;94008.69;;;20.51;41.84
6393;BME280;3229;42.674;23.282;2023-03-05T11:01:21;94003.28;;;20.46;41.66
6393;BME280;3229;42.674;23.282;2023-03-05T11:03:52;93990.38;;;20.40;41.78
6393;BME280;3229;42.674;23.282;2023-03-05T11:06:38;93992.84;;;20.35;41.58
6393;BME280;3229;42.674;23.282;2023-03-05T11:09:17;93986.50;;;20.30;41.86
6393;BME280;3229;42.674;23.282;2023-03-05T11:12:01;93983.53;;;20.27;41.80
6393;BME280;3229;42.674;23.282;2023-03-05T11:14:29;93986.53;;;20.24;41.87
6393;BME280;3229;42.674;23.282;2023-03-05T11:16:59;93969.22;;;20.18;41.86
6393;BME280;3229;42.674;23.282;2023-03-05T11:19:27;93980.63;;;20.17;41.94
6393;BME280;3229;42.674;23.282;2023-03-05T11:22:14;93969.91;;;20.07;41.67
6393;BME280;3229;42.674;23.282;2023-03-05T11:24:42;93971.50;;;20.08;41.84
6393;BME280;3229;42.674;23.282;2023-03-05T11:27:22;93973.94;;;20.02;41.77
6393;BME280;3229;42.674;23.282;2023-03-05T11:29:51;93965.22;;;19.97;41.69
6393;BME280;3229;42.674;23.282;2023-03-05T11:32:21;93967.25;;;19.95;41.88
6393;BME280;3229;42.674;23.282;2023-03-05T11:34:48;93962.47;;;19.92;41.58
6393;BME280;3229;42.674;23.282;2023-03-05T11:37:22;93963.69;;;19.89;41.94
6393;BME280;3229;42.674;23.282;2023-03-05T11:40:06;93954.53;;;19.87;41.83
6393;BME280;3229;42.674;23.282;2023-03-05T11:42:41;93948.75;;;19.85;41.63
6393;BME280;3229;42.674;23.282;2023-03-05T11:45:15;93949.56;;;19.85;41.94
6393;BME280;3229;42.674;23.282;2023-03-05T11:47:45;93946.38;;;19.83;41.81
6393;BME280;3229;42.674;23.282;2023-03-05T11:50:19;93937.22;;;19.80;41.77
6393;BME280;3229;42.674;23.282;2023-03-05T11:52:50;93933.03;;;19.79;41.74
6393;BME280;3229;42.674;23.282;2023-03-05T11:55:18;93926.69;;;19.75;42.02
6393;BME280;3229;42.674;23.282;2023-03-05T11:57:50;93929.13;;;19.70;41.62
6393;BME280;3229;42.674;23.282;2023-03-05T12:00:23;93917.00;;;19.64;41.81
6393;BME280;3229;42.674;23.282;2023-03-05T12:02:54;93921.19;;;19.59;41.77
6393;BME280;3229;42.674;23.282;2023-03-05T12:05:22;93913.50;;;19.52;41.57
6393;BME280;3229;42.674;23.282;2023-03-05T12:07:52;93911.16;;;19.44;41.66
6393;BME280;3229;42.674;23.282;2023-03-05T12:10:23;93914.41;;;19.33;41.64
6393;BME280;3229;42.674;23.282;2023-03-05T12:12:56;93913.31;;;19.22;41.77
6393;BME280;3229;42.674;23.282;2023-03-05T12:15:36;93903.81;;;19.09;41.88
6393;BME280;3229;42.674;23.282;2023-03-05T12:18:14;93905.28;;;18.98;42.17
6393;BME280;3229;42.674;23.282;2023-03-05T12:20:48;93898.19;;;18.87;42.02
6393;BME280;3229;42.674;23.282;2023-03-05T12:23:21;93893.81;;;18.81;42.17
6393;BME280;3229;42.674;23.282;2023-03-05T12:25:53;93891.47;;;18.73;42.24
6393;BME280;3229;42.674;23.282;2023-03-05T12:28:52;93903.41;;;18.67;42.36
6393;BME280;3229;42.674;23.282;2023-03-05T12:31:27;93886.13;;;18.61;42.18
6393;BME280;3229;42.674;23.282;2023-03-05T12:33:54;93887.31;;;18.59;42.45
6393;BME280;3229;42.674;23.282;2023-03-05T12:36:36;93883.94;;;18.58;42.34
6393;BME280;3229;42.674;23.282;2023-03-05T12:45:40;93867.06;;;18.49;42.33
6393;BME280;3229;42.674;23.282;2023-03-05T12:48:33;93868.88;;;18.42;42.44
6393;BME280;3229;42.674;23.282;2023-03-05T12:51:01;93867.47;;;18.39;42.48
6393;BME280;3229;42.674;23.282;2023-03-05T12:53:28;93855.53;;;18.38;42.31
6393;BME280;3229;42.674;23.282;2023-03-05T12:56:01;93862.31;;;18.39;42.37
6393;BME280;3229;42.674;23.282;2023-03-05T12:58:38;93858.13;;;18.38;42.21
6393;BME280;3229;42.674;23.282;2023-03-05T13:01:22;93853.97;;;18.37;42.18
6393;BME280;3229;42.674;23.282;2023-03-05T13:03:55;93849.00;;;18.36;42.37
6393;BME280;3229;42.674;23.282;2023-03-05T13:06:26;93855.16;;;18.35;42.41
6393;BME280;3229;42.674;23.282;2023-03-05T13:08:58;93855.16;;;18.35;42.23
6393;BME280;3229;42.674;23.282;2023-03-05T13:11:27;93850.41;;;18.32;42.37
6393;BME280;3229;42.674;23.282;2023-03-05T13:13:56;93847.66;;;18.26;42.28
6393;BME280;3229;42.674;23.282;2023-03-05T13:16:26;93849.06;;;18.22;42.33
6393;BME280;3229;42.674;23.282;2023-03-05T13:18:55;93848.44;;;18.20;42.28
6393;BME280;3229;42.674;23.282;2023-03-05T13:21:26;93849.06;;;18.16;42.32
6393;BME280;3229;42.674;23.282;2023-03-05T13:23:54;93853.84;;;18.12;42.41
6393;BME280;3229;42.674;23.282;2023-03-05T13:26:24;93839.16;;;18.06;42.40
6393;BME280;3229;42.674;23.282;2023-03-05T13:29:10;93848.31;;;18.02;42.42
6393;BME280;3229;42.674;23.282;2023-03-05T13:31:42;93846.75;;;17.94;42.47
6393;BME280;3229;42.674;23.282;2023-03-05T13:34:14;93846.38;;;17.84;42.44